Time;durP1;ratioP1;P1;durP2;ratioP2;P2;SDS_P1;SDS_P2;PMS_P1;PMS_P2;Temp;Humidity;BMP_temperature;BMP_pressure;BME280_temperature;BME280_humidity;BME280_pressure;Samples;Min_cycle;Max_cycle;Signal;HPM_P1;HPM_P2
2022/08/10 00:01:23;;;;;;;2.97;2.67;;;;;;;;;;5093191;28;20964;-78
2022/08/10 00:03:52;;;;;;;5.30;2.53;;;;;;;;;;5093505;28;20446;-79
2022/08/10 00:06:19;;;;;;;3.40;3.03;;;;;;;;;;5093779;28;20460;-78
2022/08/10 00:08:46;;;;;;;4.27;2.60;;;;;;;;;;5094120;28;20887;-80
2022/08/10 00:11:13;;;;;;;3.20;2.57;;;;;;;;;;5095470;28;20435;-79
2022/08/10 00:13:40;;;;;;;2.53;2.33;;;;;;;;;;5093708;28;20474;-79
2022/08/10 00:16:07;;;;;;;4.47;3.10;;;;;;;;;;5090584;28;20451;-79
2022/08/10 00:18:37;;;;;;;3.90;2.90;;;;;;;;;;5091551;28;20439;-80
2022/08/10 00:21:07;;;;;;;3.27;2.97;;;;;;;;;;5092733;28;20454;-79
2022/08/10 00:23:35;;;;;;;4.43;3.40;;;;;;;;;;5091575;28;20469;-79
2022/08/10 00:26:02;;;;;;;4.47;3.27;;;;;;;;;;5091379;28;20463;-80
2022/08/10 00:28:29;;;;;;;4.43;3.00;;;;;;;;;;5093351;28;20443;-78
2022/08/10 00:30:56;;;;;;;3.63;3.33;;;;;;;;;;5093851;28;20530;-79
2022/08/10 00:33:24;;;;;;;3.53;3.00;;;;;;;;;;5095394;28;20453;-79
2022/08/10 00:35:51;;;;;;;4.67;2.77;;;;;;;;;;5092523;28;20436;-80
2022/08/10 00:38:20;;;;;;;3.30;3.00;;;;;;;;;;5090177;28;21031;-79
2022/08/10 00:40:47;;;;;;;4.43;3.00;;;;;;;;;;5090859;28;20435;-78
2022/08/10 00:43:14;;;;;;;4.20;3.10;;;;;;;;;;5092511;28;20534;-79
2022/08/10 00:45:42;;;;;;;3.07;2.77;;;;;;;;;;5092604;28;20443;-79
2022/08/10 00:48:09;;;;;;;3.97;3.20;;;;;;;;;;5092477;28;20879;-78
2022/08/10 00:50:36;;;;;;;3.80;2.90;;;;;;;;;;5092906;28;20443;-78
2022/08/10 00:53:04;;;;;;;3.47;2.93;;;;;;;;;;5092904;28;20459;-79
2022/08/10 00:55:32;;;;;;;3.50;3.00;;;;;;;;;;5094397;28;20571;-79
2022/08/10 00:57:59;;;;;;;3.20;2.90;;;;;;;;;;5092232;28;20516;-79
2022/08/10 01:00:28;;;;;;;2.80;2.40;;;;;;;;;;5090010;28;20763;-78
2022/08/10 01:02:55;;;;;;;3.30;3.00;;;;;;;;;;5089761;28;20952;-79
2022/08/10 01:08:03;;;;;;;3.10;2.80;;;;;;;;;;5092314;28;20526;-80
2022/08/10 01:10:37;;;;;;;3.23;2.90;;;;;;;;;;5092267;28;20570;-79
2022/08/10 01:13:07;;;;;;;3.37;3.07;;;;;;;;;;5092495;28;20439;-79
2022/08/10 01:15:37;;;;;;;3.20;2.90;;;;;;;;;;5092677;28;20487;-78
2022/08/10 01:18:06;;;;;;;3.00;2.70;;;;;;;;;;5094178;28;20459;-79
2022/08/10 01:20:36;;;;;;;3.13;2.83;;;;;;;;;;5092361;28;20510;-80
2022/08/10 01:23:18;;;;;;;3.37;2.80;;;;;;;;;;5088469;28;20527;-79
2022/08/10 01:25:53;;;;;;;3.97;3.33;;;;;;;;;;5089248;28;20463;-79
2022/08/10 01:28:24;;;;;;;3.50;3.00;;;;;;;;;;5091957;28;20450;-78
2022/08/10 01:30:55;;;;;;;3.40;2.90;;;;;;;;;;5091855;28;20814;-79
2022/08/10 01:33:24;;;;;;;3.40;2.93;;;;;;;;;;5092196;28;20435;-78
2022/08/10 01:35:54;;;;;;;3.20;2.67;;;;;;;;;;5091746;28;20471;-79
2022/08/10 01:38:24;;;;;;;4.20;3.70;;;;;;;;;;5093118;28;20459;-79
2022/08/10 01:40:54;;;;;;;4.50;3.23;;;;;;;;;;5092449;28;20449;-79
2022/08/10 01:43:22;;;;;;;3.97;3.10;;;;;;;;;;5091144;28;20741;-79
2022/08/10 01:45:52;;;;;;;4.60;3.10;;;;;;;;;;5089058;28;20435;-78
2022/08/10 01:48:28;;;;;;;3.60;3.30;;;;;;;;;;5089022;28;20443;-79
2022/08/10 01:50:57;;;;;;;3.93;3.37;;;;;;;;;;5089983;28;20439;-79
2022/08/10 01:53:26;;;;;;;4.43;3.10;;;;;;;;;;5090476;28;20446;-78
2022/08/10 01:55:55;;;;;;;3.00;2.80;;;;;;;;;;5090606;28;20926;-77
2022/08/10 01:58:23;;;;;;;3.63;2.90;;;;;;;;;;5090169;28;20439;-78
2022/08/10 02:00:52;;;;;;;3.43;3.13;;;;;;;;;;5092746;28;20444;-78
2022/08/10 02:03:21;;;;;;;4.00;2.90;;;;;;;;;;5093527;28;20809;-80
2022/08/10 02:05:50;;;;;;;3.43;3.13;;;;;;;;;;5090400;28;20428;-79
2022/08/10 02:08:18;;;;;;;3.50;2.90;;;;;;;;;;5088924;28;20812;-78
2022/08/10 02:10:46;;;;;;;3.30;3.00;;;;;;;;;;5088914;28;20494;-78
2022/08/10 02:13:16;;;;;;;3.40;3.10;;;;;;;;;;5091081;28;20425;-78
2022/08/10 02:15:44;;;;;;;4.20;2.90;;;;;;;;;;5091073;28;20496;-79
2022/08/10 02:18:13;;;;;;;3.67;3.23;;;;;;;;;;5091582;28;20448;-78
2022/08/10 02:20:43;;;;;;;4.10;3.37;;;;;;;;;;5091234;28;20443;-79
2022/08/10 02:23:12;;;;;;;3.90;3.47;;;;;;;;;;5093094;28;20455;-78
2022/08/10 02:25:40;;;;;;;3.30;3.00;;;;;;;;;;5093089;28;20979;-78
2022/08/10 02:28:07;;;;;;;3.57;3.27;;;;;;;;;;5088539;28;20462;-78
2022/08/10 02:30:35;;;;;;;5.20;3.00;;;;;;;;;;5088470;28;20514;-79
2022/08/10 02:33:04;;;;;;;3.47;3.17;;;;;;;;;;5090616;28;20849;-78
2022/08/10 02:35:32;;;;;;;3.20;2.90;;;;;;;;;;5090753;28;20487;-77
2022/08/10 02:38:04;;;;;;;4.33;3.17;;;;;;;;;;5090880;28;20983;-78
2022/08/10 02:40:32;;;;;;;4.00;3.37;;;;;;;;;;5091767;28;20792;-79
2022/08/10 02:43:02;;;;;;;4.53;3.30;;;;;;;;;;5090175;28;20940;-77
2022/08/10 02:45:33;;;;;;;3.50;3.20;;;;;;;;;;5091926;28;20536;-79
2022/08/10 02:48:02;;;;;;;3.60;3.30;;;;;;;;;;5093084;28;20463;-79
2022/08/10 02:50:30;;;;;;;5.60;3.43;;;;;;;;;;5089511;28;20534;-79
2022/08/10 02:53:00;;;;;;;3.00;2.80;;;;;;;;;;5088575;28;20525;-79
2022/08/10 02:55:32;;;;;;;5.50;3.30;;;;;;;;;;5088810;28;20474;-79
2022/08/10 02:58:03;;;;;;;4.80;3.30;;;;;;;;;;5090565;28;20469;-77
2022/08/10 03:00:30;;;;;;;3.53;3.23;;;;;;;;;;5090835;28;20443;-78
2022/08/10 03:02:59;;;;;;;3.40;3.00;;;;;;;;;;5091259;28;20435;-79
2022/08/10 03:05:27;;;;;;;3.07;2.77;;;;;;;;;;5090366;28;20431;-78
2022/08/10 03:07:56;;;;;;;3.90;3.43;;;;;;;;;;5092898;28;20459;-79
2022/08/10 03:10:25;;;;;;;4.63;2.97;;;;;;;;;;5091812;28;20446;-79
2022/08/10 03:12:55;;;;;;;4.53;3.00;;;;;;;;;;5087942;28;20434;-78
2022/08/10 03:15:23;;;;;;;4.00;3.70;;;;;;;;;;5088146;28;20477;-79
2022/08/10 03:17:51;;;;;;;3.87;3.47;;;;;;;;;;5089876;28;20498;-78
2022/08/10 03:20:20;;;;;;;3.53;3.20;;;;;;;;;;5090350;28;20428;-78
2022/08/10 03:22:49;;;;;;;3.63;3.23;;;;;;;;;;5090466;28;20439;-78
2022/08/10 03:25:18;;;;;;;4.80;3.40;;;;;;;;;;5091203;28;20467;-78
2022/08/10 03:27:46;;;;;;;4.37;3.97;;;;;;;;;;5093235;28;20469;-79
2022/08/10 03:30:15;;;;;;;5.13;3.60;;;;;;;;;;5096768;28;20454;-78
2022/08/10 03:32:44;;;;;;;5.57;3.83;;;;;;;;;;5096536;28;20447;-79
2022/08/10 03:35:12;;;;;;;4.63;3.50;;;;;;;;;;5091675;28;20475;-78
2022/08/10 03:37:40;;;;;;;5.43;3.60;;;;;;;;;;5091777;28;20788;-79
2022/08/10 03:40:08;;;;;;;5.10;3.60;;;;;;;;;;5093421;28;20447;-79
2022/08/10 03:42:37;;;;;;;4.20;3.60;;;;;;;;;;5093778;28;20444;-79
2022/08/10 03:45:04;;;;;;;3.63;3.33;;;;;;;;;;5092552;28;20547;-79
2022/08/10 03:47:34;;;;;;;7.50;4.00;;;;;;;;;;5094236;28;20495;-79
2022/08/10 03:50:03;;;;;;;4.60;3.70;;;;;;;;;;5093617;28;20443;-78
2022/08/10 03:52:30;;;;;;;4.30;3.90;;;;;;;;;;5096214;28;20917;-78
2022/08/10 03:54:59;;;;;;;4.50;3.57;;;;;;;;;;5095910;28;20471;-78
2022/08/10 03:57:28;;;;;;;3.93;3.53;;;;;;;;;;5091291;28;20454;-78
2022/08/10 03:59:56;;;;;;;3.97;3.57;;;;;;;;;;5091542;28;20453;-79
2022/08/10 04:02:23;;;;;;;3.97;3.27;;;;;;;;;;5092911;28;20450;-79
2022/08/10 04:04:52;;;;;;;3.77;3.47;;;;;;;;;;5092055;28;20446;-78
2022/08/10 04:07:19;;;;;;;3.50;3.20;;;;;;;;;;5093590;28;20458;-78
2022/08/10 04:09:46;;;;;;;5.13;3.43;;;;;;;;;;5093968;28;20552;-78
2022/08/10 04:12:14;;;;;;;3.60;3.30;;;;;;;;;;5093247;28;20960;-79
2022/08/10 04:14:41;;;;;;;5.00;3.57;;;;;;;;;;5095192;28;20443;-78
2022/08/10 04:17:08;;;;;;;4.70;4.20;;;;;;;;;;5095912;28;20527;-79
2022/08/10 04:19:39;;;;;;;3.90;3.20;;;;;;;;;;5091266;28;20443;-78
2022/08/10 04:22:09;;;;;;;6.27;3.50;;;;;;;;;;5090954;28;20463;-78
2022/08/10 04:24:38;;;;;;;3.53;3.23;;;;;;;;;;5092342;28;20446;-79
2022/08/10 04:27:06;;;;;;;6.50;3.70;;;;;;;;;;5092614;28;20845;-78
2022/08/10 04:29:33;;;;;;;4.03;3.73;;;;;;;;;;5092960;28;20440;-79
2022/08/10 04:32:01;;;;;;;4.50;3.47;;;;;;;;;;5093578;28;20425;-78
2022/08/10 04:34:31;;;;;;;7.13;3.87;;;;;;;;;;5092926;28;20883;-79
2022/08/10 04:36:59;;;;;;;5.27;3.90;;;;;;;;;;5094885;28;20458;-79
2022/08/10 04:39:28;;;;;;;4.50;4.00;;;;;;;;;;5094024;28;20508;-77
2022/08/10 04:41:55;;;;;;;4.33;3.40;;;;;;;;;;5090303;28;20519;-78
2022/08/10 04:44:23;;;;;;;5.23;4.03;;;;;;;;;;5090809;28;20433;-78
2022/08/10 04:46:50;;;;;;;4.30;3.90;;;;;;;;;;5092097;28;20463;-79
2022/08/10 04:49:17;;;;;;;6.00;4.27;;;;;;;;;;5090930;28;21036;-78
2022/08/10 04:51:45;;;;;;;7.30;3.90;;;;;;;;;;5092517;28;20449;-79
2022/08/10 04:54:12;;;;;;;4.83;3.93;;;;;;;;;;5092821;28;20568;-78
2022/08/10 04:56:40;;;;;;;5.73;4.20;;;;;;;;;;5092233;28;20493;-78
2022/08/10 04:59:09;;;;;;;4.13;3.83;;;;;;;;;;5094856;28;20483;-79
2022/08/10 05:01:37;;;;;;;3.77;3.47;;;;;;;;;;5093605;28;20744;-77
2022/08/10 05:04:04;;;;;;;4.90;3.93;;;;;;;;;;5089106;28;20436;-77
2022/08/10 05:06:31;;;;;;;4.37;3.80;;;;;;;;;;5089846;28;20889;-79
2022/08/10 05:08:59;;;;;;;8.73;4.10;;;;;;;;;;5071576;28;20440;-79
2022/08/10 05:11:26;;;;;;;5.03;4.30;;;;;;;;;;5071605;28;20455;-78
2022/08/10 05:13:54;;;;;;;4.50;4.10;;;;;;;;;;5072072;28;20470;-78
2022/08/10 05:16:22;;;;;;;6.70;4.20;;;;;;;;;;5071974;28;21022;-78
2022/08/10 05:18:49;;;;;;;5.30;3.90;;;;;;;;;;5074761;28;20493;-78
2022/08/10 05:21:16;;;;;;;4.70;4.20;;;;;;;;;;5094184;28;20521;-78
2022/08/10 05:23:43;;;;;;;5.23;3.87;;;;;;;;;;5093135;28;20442;-77
2022/08/10 05:26:10;;;;;;;5.40;4.40;;;;;;;;;;5089619;28;20544;-77
2022/08/10 05:28:37;;;;;;;6.90;4.37;;;;;;;;;;5090247;28;20443;-77
2022/08/10 05:31:06;;;;;;;5.60;4.20;;;;;;;;;;5091320;28;20447;-78
2022/08/10 05:33:33;;;;;;;5.20;3.80;;;;;;;;;;5091405;28;20928;-77
2022/08/10 05:36:01;;;;;;;8.40;3.77;;;;;;;;;;5091568;28;20979;-77
2022/08/10 05:38:28;;;;;;;4.20;3.80;;;;;;;;;;5092313;28;20495;-77
2022/08/10 05:40:56;;;;;;;6.70;4.60;;;;;;;;;;5092003;28;20462;-77
2022/08/10 05:43:24;;;;;;;5.53;4.53;;;;;;;;;;5093749;28;20439;-77
2022/08/10 05:45:52;;;;;;;6.50;3.90;;;;;;;;;;5093245;28;20442;-76
2022/08/10 05:48:20;;;;;;;4.40;4.00;;;;;;;;;;5089122;28;20439;-77
2022/08/10 05:50:47;;;;;;;8.50;4.47;;;;;;;;;;5089427;28;20431;-77
2022/08/10 05:53:15;;;;;;;6.40;3.90;;;;;;;;;;5091016;28;20539;-78
2022/08/10 05:55:42;;;;;;;4.63;3.53;;;;;;;;;;5091100;28;20475;-76
2022/08/10 05:58:10;;;;;;;6.20;4.00;;;;;;;;;;5091496;28;20962;-77
2022/08/10 06:00:38;;;;;;;4.57;4.10;;;;;;;;;;5092083;28;20447;-76
2022/08/10 06:03:08;;;;;;;5.50;4.30;;;;;;;;;;5090339;28;20470;-77
2022/08/10 06:05:37;;;;;;;8.23;5.33;;;;;;;;;;5093683;28;20523;-76
2022/08/10 06:08:10;;;;;;;6.83;4.33;;;;;;;;;;5092866;28;20467;-77
2022/08/10 06:10:38;;;;;;;5.30;4.40;;;;;;;;;;5088796;28;20448;-77
2022/08/10 06:15:48;;;;;;;6.87;4.57;;;;;;;;;;5090643;28;21053;-77
2022/08/10 06:18:15;;;;;;;4.60;3.80;;;;;;;;;;5090297;28;20455;-79
2022/08/10 06:20:46;;;;;;;7.50;4.10;;;;;;;;;;5091280;28;20865;-78
2022/08/10 06:23:13;;;;;;;3.83;3.53;;;;;;;;;;5091674;28;20478;-77
2022/08/10 06:25:40;;;;;;;8.50;4.70;;;;;;;;;;5090026;28;20471;-77
2022/08/10 06:28:09;;;;;;;5.90;3.63;;;;;;;;;;5093122;28;20474;-77
2022/08/10 06:30:37;;;;;;;6.63;3.97;;;;;;;;;;5092317;28;20444;-77
2022/08/10 06:33:05;;;;;;;6.13;4.60;;;;;;;;;;5088787;28;20794;-77
2022/08/10 06:35:33;;;;;;;7.07;4.27;;;;;;;;;;5088978;28;20952;-77
2022/08/10 06:38:03;;;;;;;8.20;4.00;;;;;;;;;;5090875;28;20545;-77
2022/08/10 06:40:35;;;;;;;4.17;3.53;;;;;;;;;;5089581;28;20935;-78
2022/08/10 06:43:05;;;;;;;5.00;3.60;;;;;;;;;;5091058;28;20443;-77
2022/08/10 06:45:36;;;;;;;6.13;4.33;;;;;;;;;;5091724;28;20439;-77
2022/08/10 06:48:04;;;;;;;4.93;3.50;;;;;;;;;;5090882;28;20915;-77
2022/08/10 06:50:36;;;;;;;4.60;3.40;;;;;;;;;;5094107;28;20873;-77
2022/08/10 06:53:06;;;;;;;4.20;3.73;;;;;;;;;;5092897;28;20474;-77
2022/08/10 06:55:34;;;;;;;4.90;4.00;;;;;;;;;;5089207;28;20438;-77
2022/08/10 06:58:02;;;;;;;5.03;3.60;;;;;;;;;;5089606;28;20855;-77
2022/08/10 07:00:31;;;;;;;4.87;3.73;;;;;;;;;;5090893;28;20445;-77
2022/08/10 07:03:00;;;;;;;6.37;3.20;;;;;;;;;;5093829;28;20439;-77
2022/08/10 07:05:28;;;;;;;3.80;3.10;;;;;;;;;;5095062;28;20525;-77
2022/08/10 07:07:57;;;;;;;5.10;3.30;;;;;;;;;;5095120;28;20463;-77
2022/08/10 07:10:27;;;;;;;4.77;3.50;;;;;;;;;;5095468;28;20447;-77
2022/08/10 07:12:56;;;;;;;3.57;3.20;;;;;;;;;;5095833;28;20443;-77
2022/08/10 07:15:24;;;;;;;5.20;3.40;;;;;;;;;;5093935;28;20546;-77
2022/08/10 07:17:53;;;;;;;4.40;3.60;;;;;;;;;;5091844;28;20522;-77
2022/08/10 07:20:21;;;;;;;4.43;3.47;;;;;;;;;;5093020;28;21179;-77
2022/08/10 07:22:49;;;;;;;4.20;3.00;;;;;;;;;;5093342;28;20445;-78
2022/08/10 07:25:19;;;;;;;4.27;3.33;;;;;;;;;;5094136;28;20473;-77
2022/08/10 07:27:48;;;;;;;5.63;3.53;;;;;;;;;;5093184;28;20474;-77
2022/08/10 07:30:16;;;;;;;3.60;3.27;;;;;;;;;;5094795;28;20466;-78
2022/08/10 07:32:44;;;;;;;4.37;3.30;;;;;;;;;;5095106;28;20463;-77
2022/08/10 07:35:12;;;;;;;4.40;3.40;;;;;;;;;;5096540;28;20807;-77
2022/08/10 07:37:45;;;;;;;4.93;3.13;;;;;;;;;;5094457;28;20479;-77
2022/08/10 07:40:14;;;;;;;6.20;3.33;;;;;;;;;;5091842;28;20459;-77
2022/08/10 07:42:43;;;;;;;3.30;3.00;;;;;;;;;;5092722;28;20438;-77
2022/08/10 07:45:12;;;;;;;5.53;3.53;;;;;;;;;;5093870;28;20538;-77
2022/08/10 07:47:41;;;;;;;5.80;3.40;;;;;;;;;;5094012;28;20463;-77
2022/08/10 07:50:10;;;;;;;4.87;3.60;;;;;;;;;;5092900;28;20543;-77
2022/08/10 07:52:38;;;;;;;12.53;3.60;;;;;;;;;;5094734;28;20496;-77
2022/08/10 07:55:07;;;;;;;3.63;3.20;;;;;;;;;;5095287;28;20447;-77
2022/08/10 07:57:37;;;;;;;4.03;3.40;;;;;;;;;;5094832;28;20490;-76
2022/08/10 08:00:05;;;;;;;3.63;3.33;;;;;;;;;;5093141;28;20441;-76
2022/08/10 08:02:36;;;;;;;3.23;2.90;;;;;;;;;;5091586;28;20428;-78
2022/08/10 08:05:06;;;;;;;4.00;2.90;;;;;;;;;;5091060;28;21035;-77
2022/08/10 08:07:35;;;;;;;4.20;3.00;;;;;;;;;;5093741;28;21047;-77
2022/08/10 08:10:02;;;;;;;3.33;3.03;;;;;;;;;;5093711;28;20514;-77
2022/08/10 08:12:30;;;;;;;4.60;3.20;;;;;;;;;;5093650;28;20531;-77
2022/08/10 08:14:59;;;;;;;7.10;3.70;;;;;;;;;;5094450;28;20465;-78
2022/08/10 08:17:28;;;;;;;5.63;3.20;;;;;;;;;;5094535;28;21054;-78
2022/08/10 08:19:58;;;;;;;3.57;3.20;;;;;;;;;;5095888;28;20447;-78
2022/08/10 08:22:25;;;;;;;3.90;3.27;;;;;;;;;;5093533;28;20435;-78
2022/08/10 08:24:53;;;;;;;5.17;3.27;;;;;;;;;;5090992;28;20827;-78
2022/08/10 08:27:21;;;;;;;4.43;3.10;;;;;;;;;;5092254;28;20458;-78
2022/08/10 08:29:52;;;;;;;3.83;3.47;;;;;;;;;;5093213;28;20479;-76
2022/08/10 08:32:21;;;;;;;6.70;3.40;;;;;;;;;;5091910;28;20445;-77
2022/08/10 08:34:51;;;;;;;6.50;3.63;;;;;;;;;;5093238;28;20469;-77
2022/08/10 08:37:20;;;;;;;2.80;2.60;;;;;;;;;;5091836;28;20593;-78
2022/08/10 08:39:47;;;;;;;3.43;3.13;;;;;;;;;;5094243;28;20980;-76
2022/08/10 08:42:23;;;;;;;5.60;3.53;;;;;;;;;;5095408;28;20439;-77
2022/08/10 08:44:59;;;;;;;5.50;3.07;;;;;;;;;;5092671;28;20432;-77
2022/08/10 08:47:33;;;;;;;4.00;3.07;;;;;;;;;;5090282;28;20447;-78
2022/08/10 08:50:07;;;;;;;3.70;3.40;;;;;;;;;;5091972;28;20443;-77
2022/08/10 08:52:42;;;;;;;3.10;2.90;;;;;;;;;;5092917;28;20465;-78
2022/08/10 08:55:16;;;;;;;3.30;3.00;;;;;;;;;;5092984;28;20449;-78
2022/08/10 08:57:47;;;;;;;3.10;2.90;;;;;;;;;;5093279;28;20537;-77
2022/08/10 09:00:18;;;;;;;3.00;2.70;;;;;;;;;;5091019;28;20446;-77
2022/08/10 09:02:55;;;;;;;5.23;3.30;;;;;;;;;;5095079;28;20534;-77
2022/08/10 09:05:28;;;;;;;9.87;3.30;;;;;;;;;;5093781;28;20442;-77
2022/08/10 09:08:11;;;;;;;3.53;3.23;;;;;;;;;;5089229;28;20447;-77
2022/08/10 09:10:42;;;;;;;5.00;3.17;;;;;;;;;;5090719;28;20431;-77
2022/08/10 09:13:11;;;;;;;4.20;3.13;;;;;;;;;;5092047;28;20450;-77
2022/08/10 09:15:41;;;;;;;4.63;3.17;;;;;;;;;;5092258;28;20807;-78
2022/08/10 09:18:14;;;;;;;4.63;3.00;;;;;;;;;;5092491;28;20479;-77
2022/08/10 09:20:46;;;;;;;4.20;2.90;;;;;;;;;;5091508;28;20453;-77
2022/08/10 09:23:20;;;;;;;5.10;3.27;;;;;;;;;;5092650;28;20443;-77
2022/08/10 09:25:52;;;;;;;3.43;3.13;;;;;;;;;;5093576;28;20569;-77
2022/08/10 09:28:22;;;;;;;4.10;3.10;;;;;;;;;;5092356;28;20809;-78
2022/08/10 09:30:52;;;;;;;4.20;3.00;;;;;;;;;;5089470;28;20954;-78
2022/08/10 09:33:21;;;;;;;3.13;2.83;;;;;;;;;;5090405;28;20488;-78
2022/08/10 09:35:52;;;;;;;4.10;3.20;;;;;;;;;;5090665;28;20439;-77
2022/08/10 09:38:27;;;;;;;4.70;2.93;;;;;;;;;;5092026;28;20475;-77
2022/08/10 09:40:58;;;;;;;3.30;3.00;;;;;;;;;;5092284;28;20792;-77
2022/08/10 09:43:30;;;;;;;3.37;2.90;;;;;;;;;;5092422;28;20443;-77
2022/08/10 09:46:03;;;;;;;3.67;3.20;;;;;;;;;;5092569;28;20545;-77
2022/08/10 09:48:33;;;;;;;3.07;2.77;;;;;;;;;;5094320;28;20518;-78
2022/08/10 09:51:05;;;;;;;5.03;3.20;;;;;;;;;;5092466;28;20817;-77
2022/08/10 09:53:42;;;;;;;4.70;3.20;;;;;;;;;;5089483;28;20434;-78
2022/08/10 09:56:14;;;;;;;3.43;2.83;;;;;;;;;;5090437;28;20463;-78
2022/08/10 09:58:46;;;;;;;3.50;3.20;;;;;;;;;;5091373;28;20538;-78
2022/08/10 10:01:19;;;;;;;3.43;3.13;;;;;;;;;;5091824;28;20439;-77
2022/08/10 10:03:54;;;;;;;3.17;2.77;;;;;;;;;;5092025;28;20443;-77
2022/08/10 10:06:24;;;;;;;3.40;3.10;;;;;;;;;;5091531;28;20462;-76
2022/08/10 10:09:03;;;;;;;5.40;3.17;;;;;;;;;;5093203;28;20443;-77
2022/08/10 10:11:35;;;;;;;3.10;2.80;;;;;;;;;;5093759;28;20439;-77
2022/08/10 10:14:07;;;;;;;6.50;3.40;;;;;;;;;;5088836;28;20506;-77
2022/08/10 10:16:40;;;;;;;3.60;3.10;;;;;;;;;;5088851;28;20469;-77
2022/08/10 10:19:16;;;;;;;6.13;3.47;;;;;;;;;;5089430;28;20459;-77
2022/08/10 10:21:45;;;;;;;3.37;3.07;;;;;;;;;;5091282;28;20443;-77
2022/08/10 10:24:20;;;;;;;3.70;2.97;;;;;;;;;;5091331;28;20895;-77
2022/08/10 10:26:52;;;;;;;3.57;2.87;;;;;;;;;;5091759;28;20463;-77
2022/08/10 10:29:25;;;;;;;3.60;3.30;;;;;;;;;;5091473;28;20455;-77
2022/08/10 10:31:55;;;;;;;2.67;2.47;;;;;;;;;;5092238;28;20442;-77
2022/08/10 10:34:25;;;;;;;3.20;2.90;;;;;;;;;;5093829;28;20440;-78
2022/08/10 10:36:53;;;;;;;3.70;2.90;;;;;;;;;;5090379;28;20808;-77
2022/08/10 10:39:23;;;;;;;4.43;3.43;;;;;;;;;;5093835;28;20435;-78
2022/08/10 10:41:53;;;;;;;2.97;2.73;;;;;;;;;;5095450;28;20885;-77
2022/08/10 10:44:26;;;;;;;3.33;3.03;;;;;;;;;;5093888;28;20452;-77
2022/08/10 10:46:58;;;;;;;5.60;3.80;;;;;;;;;;5095636;28;20557;-78
2022/08/10 10:49:36;;;;;;;4.40;2.93;;;;;;;;;;5095839;28;20442;-77
2022/08/10 10:52:05;;;;;;;3.43;2.70;;;;;;;;;;5095803;28;20932;-77
2022/08/10 10:54:40;;;;;;;2.83;2.63;;;;;;;;;;5097458;28;20443;-77
2022/08/10 10:57:12;;;;;;;5.90;2.87;;;;;;;;;;5096434;28;20482;-77
2022/08/10 10:59:44;;;;;;;3.20;2.60;;;;;;;;;;5092697;28;20439;-78
2022/08/10 11:02:18;;;;;;;3.47;2.87;;;;;;;;;;5093188;28;20443;-77
2022/08/10 11:04:47;;;;;;;3.23;2.93;;;;;;;;;;5094995;28;20439;-78
2022/08/10 11:07:17;;;;;;;3.50;3.20;;;;;;;;;;5094723;28;20455;-77
2022/08/10 11:09:47;;;;;;;3.27;2.87;;;;;;;;;;5095133;28;20799;-77
2022/08/10 11:12:18;;;;;;;3.03;2.70;;;;;;;;;;5095603;28;20807;-78
2022/08/10 11:14:49;;;;;;;4.60;2.60;;;;;;;;;;5095465;28;21027;-77
2022/08/10 11:17:19;;;;;;;4.33;3.10;;;;;;;;;;5097029;28;21073;-78
2022/08/10 11:19:53;;;;;;;2.73;2.53;;;;;;;;;;5094204;28;20813;-78
2022/08/10 11:22:23;;;;;;;4.00;3.00;;;;;;;;;;5091237;28;20458;-77
2022/08/10 11:24:55;;;;;;;2.70;2.50;;;;;;;;;;5093022;28;20478;-78
2022/08/10 11:27:30;;;;;;;3.70;3.27;;;;;;;;;;5094371;28;20469;-78
2022/08/10 11:30:01;;;;;;;4.07;2.47;;;;;;;;;;5094367;28;21003;-77
2022/08/10 11:32:33;;;;;;;2.50;2.30;;;;;;;;;;5094392;28;20439;-78
2022/08/10 11:35:02;;;;;;;3.10;2.80;;;;;;;;;;5094871;28;20443;-79
2022/08/10 11:37:33;;;;;;;2.53;2.23;;;;;;;;;;5094365;28;20835;-77
2022/08/10 11:40:07;;;;;;;2.80;2.60;;;;;;;;;;5096778;28;20448;-78
2022/08/10 11:42:40;;;;;;;3.60;2.90;;;;;;;;;;5094132;28;20466;-78
2022/08/10 11:45:10;;;;;;;4.73;2.80;;;;;;;;;;5091982;28;20475;-77
2022/08/10 11:47:42;;;;;;;3.50;3.20;;;;;;;;;;5092447;28;20455;-78
2022/08/10 11:50:13;;;;;;;2.70;2.50;;;;;;;;;;5094168;28;20450;-78
2022/08/10 11:52:46;;;;;;;3.10;2.37;;;;;;;;;;5094180;28;20497;-78
2022/08/10 11:55:18;;;;;;;3.97;2.73;;;;;;;;;;5094432;28;20461;-78
2022/08/10 11:57:46;;;;;;;3.80;2.90;;;;;;;;;;5094013;28;20585;-77
2022/08/10 12:00:13;;;;;;;3.70;2.90;;;;;;;;;;5095470;28;20581;-77
2022/08/10 12:02:42;;;;;;;2.93;2.73;;;;;;;;;;5096571;28;20449;-78
2022/08/10 12:05:11;;;;;;;3.00;2.70;;;;;;;;;;5093114;28;20534;-78
2022/08/10 12:07:41;;;;;;;3.10;2.80;;;;;;;;;;5091348;28;20447;-78
2022/08/10 12:10:09;;;;;;;3.37;2.80;;;;;;;;;;5093066;28;20559;-78
2022/08/10 12:12:43;;;;;;;3.10;2.40;;;;;;;;;;5093581;28;20530;-77
2022/08/10 12:15:13;;;;;;;2.70;2.50;;;;;;;;;;5093868;28;20439;-77
2022/08/10 12:17:45;;;;;;;2.87;2.67;;;;;;;;;;5092897;28;20518;-77
2022/08/10 12:20:16;;;;;;;2.97;2.67;;;;;;;;;;5093516;28;20477;-78
2022/08/10 12:22:47;;;;;;;3.27;2.87;;;;;;;;;;5095887;28;20450;-78
2022/08/10 12:25:15;;;;;;;3.73;3.13;;;;;;;;;;5095901;28;20983;-78
2022/08/10 12:27:47;;;;;;;2.93;2.67;;;;;;;;;;5091083;28;21035;-78
2022/08/10 12:30:15;;;;;;;3.07;2.70;;;;;;;;;;5090764;28;21115;-78
2022/08/10 12:32:45;;;;;;;3.27;2.50;;;;;;;;;;5092480;28;20443;-78
2022/08/10 12:35:16;;;;;;;5.20;2.90;;;;;;;;;;5093275;28;20439;-78
2022/08/10 12:37:47;;;;;;;5.63;2.77;;;;;;;;;;5093381;28;20481;-76
2022/08/10 12:40:16;;;;;;;8.63;3.60;;;;;;;;;;5093950;28;20530;-78
2022/08/10 12:42:47;;;;;;;4.67;3.00;;;;;;;;;;5091442;28;20796;-78
2022/08/10 12:45:16;;;;;;;3.10;2.80;;;;;;;;;;5095272;28;20444;-77
2022/08/10 12:47:51;;;;;;;3.93;2.63;;;;;;;;;;5095329;28;20451;-77
2022/08/10 12:50:21;;;;;;;2.87;2.53;;;;;;;;;;5090172;28;20807;-78
2022/08/10 12:52:52;;;;;;;4.40;3.30;;;;;;;;;;5090867;28;20523;-78
2022/08/10 12:55:20;;;;;;;5.03;2.80;;;;;;;;;;5071154;28;20976;-78
2022/08/10 12:57:51;;;;;;;4.53;2.60;;;;;;;;;;5072260;28;20472;-78
2022/08/10 13:00:18;;;;;;;2.90;2.60;;;;;;;;;;5069249;28;20491;-78
2022/08/10 13:02:47;;;;;;;3.20;2.47;;;;;;;;;;5067478;28;20446;-78
2022/08/10 13:05:14;;;;;;;3.13;2.93;;;;;;;;;;5076634;28;20474;-78
2022/08/10 13:07:44;;;;;;;2.73;2.47;;;;;;;;;;5094915;28;20545;-77
2022/08/10 13:10:13;;;;;;;3.13;2.87;;;;;;;;;;5094872;28;21027;-77
2022/08/10 13:12:41;;;;;;;5.80;3.17;;;;;;;;;;5090425;28;20936;-78
2022/08/10 13:15:16;;;;;;;2.70;2.50;;;;;;;;;;5090518;28;20434;-77
2022/08/10 13:17:43;;;;;;;3.50;2.60;;;;;;;;;;5091881;28;20870;-78
2022/08/10 13:20:16;;;;;;;3.27;2.90;;;;;;;;;;5092284;28;20443;-77
2022/08/10 13:22:43;;;;;;;3.20;2.73;;;;;;;;;;5092516;28;20492;-77
2022/08/10 13:25:11;;;;;;;4.00;3.10;;;;;;;;;;5092978;28;20562;-78
2022/08/10 13:27:40;;;;;;;5.90;3.23;;;;;;;;;;5092300;28;20984;-77
2022/08/10 13:30:08;;;;;;;5.43;3.70;;;;;;;;;;5093352;28;20835;-78
2022/08/10 13:32:37;;;;;;;4.13;2.90;;;;;;;;;;5094409;28;20542;-77
2022/08/10 13:35:13;;;;;;;3.10;2.70;;;;;;;;;;5089859;28;20432;-78
2022/08/10 13:37:43;;;;;;;3.33;3.00;;;;;;;;;;5090241;28;20494;-77
2022/08/10 13:40:11;;;;;;;3.57;3.10;;;;;;;;;;5091505;28;20529;-78
2022/08/10 13:42:38;;;;;;;4.33;3.50;;;;;;;;;;5090726;28;20443;-78
2022/08/10 13:45:08;;;;;;;3.10;2.80;;;;;;;;;;5092668;28;20461;-77
2022/08/10 13:47:37;;;;;;;4.03;2.57;;;;;;;;;;5092224;28;20508;-77
2022/08/10 13:50:07;;;;;;;3.77;3.10;;;;;;;;;;5092038;28;20926;-77
2022/08/10 13:52:35;;;;;;;6.20;2.90;;;;;;;;;;5094152;28;20435;-77
2022/08/10 13:55:10;;;;;;;3.57;3.27;;;;;;;;;;5094082;28;20450;-78
2022/08/10 13:57:42;;;;;;;2.90;2.70;;;;;;;;;;5089441;28;20457;-78
2022/08/10 14:00:10;;;;;;;2.90;2.60;;;;;;;;;;5089876;28;20532;-77
2022/08/10 14:02:41;;;;;;;3.10;2.90;;;;;;;;;;5091236;28;20940;-77
2022/08/10 14:05:09;;;;;;;5.53;3.30;;;;;;;;;;5090393;28;20453;-78
2022/08/10 14:07:40;;;;;;;8.33;3.23;;;;;;;;;;5092019;28;20460;-77
2022/08/10 14:10:09;;;;;;;4.87;3.07;;;;;;;;;;5091792;28;20443;-78
2022/08/10 14:12:36;;;;;;;3.43;2.70;;;;;;;;;;5090631;28;20469;-77
2022/08/10 14:15:05;;;;;;;3.50;2.90;;;;;;;;;;5093228;28;20526;-77
2022/08/10 14:17:33;;;;;;;4.40;3.20;;;;;;;;;;5093295;28;20451;-78
2022/08/10 14:20:05;;;;;;;2.97;2.70;;;;;;;;;;5089244;28;20471;-78
2022/08/10 14:22:34;;;;;;;2.97;2.77;;;;;;;;;;5089926;28;20440;-78
2022/08/10 14:25:05;;;;;;;3.13;2.83;;;;;;;;;;5090908;28;20561;-78
2022/08/10 14:27:33;;;;;;;3.27;3.07;;;;;;;;;;5091272;28;20550;-77
2022/08/10 14:30:00;;;;;;;3.00;2.70;;;;;;;;;;5091712;28;20443;-77
2022/08/10 14:32:28;;;;;;;3.50;3.20;;;;;;;;;;5091963;28;20473;-77
2022/08/10 14:34:58;;;;;;;3.70;3.13;;;;;;;;;;5091876;28;20444;-78
2022/08/10 14:37:33;;;;;;;5.73;3.33;;;;;;;;;;5092378;28;20498;-77
2022/08/10 14:40:02;;;;;;;3.60;2.73;;;;;;;;;;5092113;28;20569;-78
2022/08/10 14:42:36;;;;;;;3.40;2.80;;;;;;;;;;5088888;28;20436;-80
2022/08/10 14:45:05;;;;;;;2.87;2.67;;;;;;;;;;5089569;28;20554;-79
2022/08/10 14:47:36;;;;;;;3.70;2.93;;;;;;;;;;5091063;28;20594;-79
2022/08/10 14:50:04;;;;;;;3.70;3.07;;;;;;;;;;5090951;28;20446;-79
2022/08/10 14:52:36;;;;;;;3.07;2.80;;;;;;;;;;5091662;28;20471;-80
2022/08/10 14:55:05;;;;;;;3.73;3.17;;;;;;;;;;5093675;28;20439;-77
2022/08/10 14:57:33;;;;;;;3.20;2.83;;;;;;;;;;5090388;28;20493;-78
2022/08/10 15:00:01;;;;;;;4.40;2.90;;;;;;;;;;5085325;28;21038;-78
2022/08/10 15:02:28;;;;;;;4.30;3.23;;;;;;;;;;5085320;28;20435;-79